Time;durP1;ratioP1;P1;durP2;ratioP2;P2;SDS_P1;SDS_P2;PMS_P1;PMS_P2;Temp;Humidity;BMP_temperature;BMP_pressure;BME280_temperature;BME280_humidity;BME280_pressure;Samples;Min_cycle;Max_cycle;Signal;HPM_P1;HPM_P2
2023/10/20 00:00:52;;;;;;;13.70;8.20;;;;;;;;;;5013841;28;20212;-45
2023/10/20 00:03:31;;;;;;;14.68;8.25;;;;;;;;;;5014039;28;20201;-46
2023/10/20 00:05:59;;;;;;;14.82;8.27;;;;;;;;;;5013779;28;20259;-46
2023/10/20 00:08:27;;;;;;;14.48;7.70;;;;;;;;;;5013609;28;20216;-45
2023/10/20 00:11:01;;;;;;;19.08;8.65;;;;;;;;;;5013677;28;20545;-48
2023/10/20 00:13:29;;;;;;;15.15;8.40;;;;;;;;;;5013514;28;20574;-47
2023/10/20 00:15:56;;;;;;;13.57;7.63;;;;;;;;;;5013571;28;20575;-45
2023/10/20 00:18:24;;;;;;;13.70;7.57;;;;;;;;;;5013415;28;20221;-47
2023/10/20 00:20:51;;;;;;;15.60;8.43;;;;;;;;;;5013568;28;20202;-46
2023/10/20 00:23:18;;;;;;;15.35;8.05;;;;;;;;;;5013735;28;20666;-49
2023/10/20 00:25:45;;;;;;;13.70;7.38;;;;;;;;;;5013325;28;20213;-46
2023/10/20 00:28:12;;;;;;;12.27;7.43;;;;;;;;;;5013112;28;20229;-48
2023/10/20 00:30:40;;;;;;;14.98;8.43;;;;;;;;;;5013321;28;20579;-51
2023/10/20 00:33:08;;;;;;;13.10;7.60;;;;;;;;;;5013476;28;20263;-50
2023/10/20 00:35:35;;;;;;;14.15;8.00;;;;;;;;;;5013780;28;20271;-47
2023/10/20 00:38:03;;;;;;;10.88;7.05;;;;;;;;;;5013060;28;20225;-49
2023/10/20 00:40:30;;;;;;;11.27;7.00;;;;;;;;;;5011947;28;20205;-49
2023/10/20 00:42:58;;;;;;;12.90;6.95;;;;;;;;;;5013223;28;20205;-46
2023/10/20 00:45:25;;;;;;;10.57;6.95;;;;;;;;;;5013252;28;20208;-50
2023/10/20 00:47:52;;;;;;;12.73;6.97;;;;;;;;;;5011961;28;20211;-49
2023/10/20 00:50:19;;;;;;;11.50;6.80;;;;;;;;;;5011810;28;20205;-48
2023/10/20 00:52:49;;;;;;;12.75;7.70;;;;;;;;;;5013226;28;20531;-46
2023/10/20 00:55:17;;;;;;;9.48;6.32;;;;;;;;;;5011808;28;20217;-52
2023/10/20 00:57:46;;;;;;;10.50;6.50;;;;;;;;;;5011687;28;20237;-49
2023/10/20 01:00:13;;;;;;;10.65;6.47;;;;;;;;;;5011753;28;20197;-48
2023/10/20 01:02:41;;;;;;;10.57;5.90;;;;;;;;;;5012734;28;20204;-47
2023/10/20 01:05:10;;;;;;;10.07;5.80;;;;;;;;;;5011548;28;20216;-51
2023/10/20 01:07:37;;;;;;;9.88;6.22;;;;;;;;;;5012571;28;20209;-48
2023/10/20 01:10:05;;;;;;;13.82;6.60;;;;;;;;;;5012652;28;20201;-48
2023/10/20 01:12:33;;;;;;;11.23;7.40;;;;;;;;;;5011401;28;20209;-45
2023/10/20 01:15:04;;;;;;;9.45;6.25;;;;;;;;;;5012504;28;20675;-51
2023/10/20 01:17:32;;;;;;;11.48;6.30;;;;;;;;;;5012355;28;20232;-48
2023/10/20 01:20:04;;;;;;;8.68;5.68;;;;;;;;;;5012239;28;20675;-52
2023/10/20 01:22:32;;;;;;;9.90;6.50;;;;;;;;;;5012609;28;20201;-50
2023/10/20 01:24:59;;;;;;;8.48;5.95;;;;;;;;;;5012437;28;20198;-49
2023/10/20 01:27:27;;;;;;;10.02;6.30;;;;;;;;;;5011035;28;20240;-47
2023/10/20 01:29:54;;;;;;;9.35;6.03;;;;;;;;;;5011020;28;20422;-50
2023/10/20 01:32:21;;;;;;;8.35;5.68;;;;;;;;;;5012235;28;20197;-50
2023/10/20 01:34:48;;;;;;;8.50;5.78;;;;;;;;;;5012172;28;20206;-50
2023/10/20 01:37:17;;;;;;;11.73;6.30;;;;;;;;;;5012440;28;20221;-48
2023/10/20 01:39:45;;;;;;;8.95;5.85;;;;;;;;;;5010880;28;20654;-51
2023/10/20 01:42:12;;;;;;;10.65;6.13;;;;;;;;;;5012169;28;20209;-50
2023/10/20 01:44:39;;;;;;;11.57;6.00;;;;;;;;;;5011872;28;20216;-52
2023/10/20 01:47:06;;;;;;;11.07;5.75;;;;;;;;;;5010753;28;20216;-47
2023/10/20 01:49:35;;;;;;;9.20;5.97;;;;;;;;;;5010564;28;20201;-51
2023/10/20 01:52:02;;;;;;;13.07;6.80;;;;;;;;;;5009297;28;20212;-49
2023/10/20 01:54:29;;;;;;;9.25;5.63;;;;;;;;;;5009114;28;20228;-53
2023/10/20 01:56:57;;;;;;;12.00;6.57;;;;;;;;;;5009208;28;20198;-50
2023/10/20 01:59:24;;;;;;;9.27;5.80;;;;;;;;;;5008777;28;20600;-52
2023/10/20 02:01:52;;;;;;;9.32;5.80;;;;;;;;;;5009332;28;20209;-50
2023/10/20 02:04:20;;;;;;;8.98;5.85;;;;;;;;;;5010224;28;20547;-52
2023/10/20 02:06:47;;;;;;;8.63;5.55;;;;;;;;;;5009476;28;20543;-48
2023/10/20 02:09:15;;;;;;;8.93;5.22;;;;;;;;;;5010482;28;20216;-48
2023/10/20 02:11:42;;;;;;;8.88;5.10;;;;;;;;;;5011751;28;20220;-49
2023/10/20 02:14:09;;;;;;;9.52;5.50;;;;;;;;;;5010435;28;20607;-47
2023/10/20 02:16:36;;;;;;;9.63;5.50;;;;;;;;;;5010727;28;20209;-48
2023/10/20 02:19:04;;;;;;;9.35;5.88;;;;;;;;;;5010377;28;20241;-50
2023/10/20 02:21:32;;;;;;;9.77;5.68;;;;;;;;;;5010730;28;20267;-48
2023/10/20 02:23:59;;;;;;;10.07;5.00;;;;;;;;;;5011481;28;20658;-47
2023/10/20 02:26:28;;;;;;;8.57;5.57;;;;;;;;;;5011766;28;20241;-51
2023/10/20 02:28:56;;;;;;;8.77;5.53;;;;;;;;;;5010572;28;20581;-52
2023/10/20 02:31:23;;;;;;;7.20;4.95;;;;;;;;;;5011789;28;20275;-46
2023/10/20 02:33:50;;;;;;;7.75;4.97;;;;;;;;;;5011728;28;20205;-47
2023/10/20 02:36:18;;;;;;;9.20;5.60;;;;;;;;;;5011591;28;20317;-49
2023/10/20 02:38:46;;;;;;;8.82;5.25;;;;;;;;;;5011358;28;20229;-48
2023/10/20 02:41:14;;;;;;;9.90;5.22;;;;;;;;;;5011442;28;20201;-51
2023/10/20 02:43:41;;;;;;;8.30;4.72;;;;;;;;;;5011654;28;20202;-50
2023/10/20 02:46:09;;;;;;;10.05;6.10;;;;;;;;;;5011396;28;20216;-48
2023/10/20 02:48:37;;;;;;;7.82;5.00;;;;;;;;;;5010318;28;20209;-50
2023/10/20 02:51:11;;;;;;;7.97;5.22;;;;;;;;;;5010386;28;20209;-51
2023/10/20 02:53:41;;;;;;;10.80;5.53;;;;;;;;;;5030989;28;20204;-49
2023/10/20 02:56:17;;;;;;;8.82;5.32;;;;;;;;;;5013524;28;20204;-46
2023/10/20 02:58:44;;;;;;;9.02;5.80;;;;;;;;;;5030974;28;20278;-47
2023/10/20 03:01:13;;;;;;;7.47;4.95;;;;;;;;;;5031073;28;20201;-48
2023/10/20 03:03:40;;;;;;;7.22;4.80;;;;;;;;;;5013431;28;20236;-50
2023/10/20 03:06:08;;;;;;;8.88;5.35;;;;;;;;;;5013390;28;20204;-45
2023/10/20 03:08:37;;;;;;;7.85;5.18;;;;;;;;;;5030789;28;20215;-45
2023/10/20 03:11:06;;;;;;;8.25;5.15;;;;;;;;;;5033744;28;20209;-46
2023/10/20 03:13:33;;;;;;;8.20;5.20;;;;;;;;;;5034560;28;20212;-49
2023/10/20 03:16:00;;;;;;;7.70;4.78;;;;;;;;;;5016978;28;20232;-50
2023/10/20 03:18:28;;;;;;;7.32;4.30;;;;;;;;;;5034254;28;20709;-46
2023/10/20 03:21:02;;;;;;;9.35;5.03;;;;;;;;;;5034304;28;20200;-46
2023/10/20 03:23:30;;;;;;;7.88;4.97;;;;;;;;;;5017019;28;20284;-46
2023/10/20 03:25:57;;;;;;;7.30;4.50;;;;;;;;;;5034272;28;20215;-46
2023/10/20 03:28:25;;;;;;;7.07;4.57;;;;;;;;;;5016571;28;20232;-53
2023/10/20 03:30:53;;;;;;;8.35;4.72;;;;;;;;;;5016184;28;20209;-50
2023/10/20 03:33:21;;;;;;;7.78;5.13;;;;;;;;;;5006343;28;20281;-47
2023/10/20 03:35:58;;;;;;;7.32;4.50;;;;;;;;;;5014541;28;20213;-53
2023/10/20 03:38:26;;;;;;;9.45;4.95;;;;;;;;;;4996607;28;20209;-50
2023/10/20 03:40:54;;;;;;;8.88;4.68;;;;;;;;;;4996776;28;20659;-49
2023/10/20 03:43:24;;;;;;;8.82;4.90;;;;;;;;;;5014165;28;20225;-48
2023/10/20 03:45:51;;;;;;;8.40;5.25;;;;;;;;;;4993046;28;20284;-48
2023/10/20 03:48:19;;;;;;;8.40;5.22;;;;;;;;;;5012438;28;20509;-52
2023/10/20 03:50:48;;;;;;;8.52;4.80;;;;;;;;;;5012230;28;20209;-50
2023/10/20 03:53:27;;;;;;;8.70;5.25;;;;;;;;;;5013302;28;20264;-47
2023/10/20 03:56:04;;;;;;;8.68;4.90;;;;;;;;;;5012731;28;20240;-47
2023/10/20 03:58:32;;;;;;;8.35;5.25;;;;;;;;;;5013906;28;20216;-49
2023/10/20 04:01:03;;;;;;;6.85;5.00;;;;;;;;;;5007830;28;20228;-49
2023/10/20 04:03:30;;;;;;;7.30;4.90;;;;;;;;;;5011711;28;20224;-46
2023/10/20 04:06:00;;;;;;;8.82;5.25;;;;;;;;;;5010590;28;20233;-49
2023/10/20 04:08:27;;;;;;;8.05;5.18;;;;;;;;;;5012459;28;20236;-52
2023/10/20 04:10:58;;;;;;;7.28;4.72;;;;;;;;;;5012267;28;20225;-53
2023/10/20 04:13:28;;;;;;;8.40;4.68;;;;;;;;;;5012388;28;20217;-48
2023/10/20 04:15:55;;;;;;;9.80;5.93;;;;;;;;;;5013064;28;20240;-49
2023/10/20 04:18:22;;;;;;;8.50;5.40;;;;;;;;;;5011801;28;20237;-52
2023/10/20 04:20:50;;;;;;;7.38;4.57;;;;;;;;;;5012746;28;20233;-51
2023/10/20 04:23:17;;;;;;;8.63;4.85;;;;;;;;;;5012396;28;20291;-58
2023/10/20 04:25:53;;;;;;;11.05;5.35;;;;;;;;;;5013095;28;20225;-50
2023/10/20 04:28:29;;;;;;;9.30;5.00;;;;;;;;;;5012215;28;20278;-50
2023/10/20 04:42:45;;;;;;;9.57;5.43;;;;;;;;;;5011623;28;20283;-54
2023/10/20 04:52:55;;;;;;;8.52;5.15;;;;;;;;;;5012483;28;20600;-56
2023/10/20 04:58:34;;;;;;;8.80;5.07;;;;;;;;;;5012318;28;20224;-49
2023/10/20 05:00:55;;;;;;;9.48;4.63;;;;;;;;;;5006332;28;20232;-49
2023/10/20 05:03:45;;;;;;;9.82;4.85;;;;;;;;;;5011536;28;20225;-53
2023/10/20 05:08:59;;;;;;;8.23;4.63;;;;;;;;;;5011626;28;20591;-49
2023/10/20 05:11:26;;;;;;;8.73;4.97;;;;;;;;;;5011691;28;20253;-51
2023/10/20 05:13:53;;;;;;;9.60;4.95;;;;;;;;;;5011564;28;20234;-48
2023/10/20 05:16:22;;;;;;;8.52;5.68;;;;;;;;;;5011306;28;20742;-53
2023/10/20 05:18:50;;;;;;;7.75;4.63;;;;;;;;;;5011706;28;20233;-48
2023/10/20 05:21:18;;;;;;;8.90;5.15;;;;;;;;;;5012166;28;20205;-46
2023/10/20 05:23:46;;;;;;;10.63;5.68;;;;;;;;;;5012071;28;20201;-50
2023/10/20 05:26:13;;;;;;;8.98;4.93;;;;;;;;;;5011924;28;20676;-51
2023/10/20 05:28:41;;;;;;;10.57;5.72;;;;;;;;;;5012215;28;20212;-50
2023/10/20 05:31:07;;;;;;;11.15;5.70;;;;;;;;;;5012351;28;20613;-49
2023/10/20 05:33:35;;;;;;;7.90;4.63;;;;;;;;;;5011779;28;20220;-50
2023/10/20 05:36:03;;;;;;;14.32;5.55;;;;;;;;;;5012276;28;20201;-51
2023/10/20 05:38:31;;;;;;;9.57;4.82;;;;;;;;;;5011862;28;20310;-47
2023/10/20 05:40:59;;;;;;;12.95;5.10;;;;;;;;;;5012007;28;20228;-51
2023/10/20 05:43:27;;;;;;;12.40;5.50;;;;;;;;;;5011913;28;20289;-53
2023/10/20 05:45:54;;;;;;;11.38;5.13;;;;;;;;;;5011952;28;20205;-46
2023/10/20 05:48:21;;;;;;;9.10;5.00;;;;;;;;;;5011943;28;20583;-49
2023/10/20 05:50:54;;;;;;;9.90;5.63;;;;;;;;;;5011792;28;20716;-50
2023/10/20 05:53:22;;;;;;;11.23;5.82;;;;;;;;;;5011932;28;20209;-49
2023/10/20 05:55:49;;;;;;;11.05;5.10;;;;;;;;;;5011814;28;20296;-50
2023/10/20 05:58:16;;;;;;;8.75;5.03;;;;;;;;;;5011886;28;20205;-48
2023/10/20 06:00:43;;;;;;;8.25;4.68;;;;;;;;;;5011698;28;20564;-53
2023/10/20 06:03:29;;;;;;;11.80;5.18;;;;;;;;;;5011756;28;20205;-53
2023/10/20 06:06:03;;;;;;;9.10;4.40;;;;;;;;;;5011700;28;20786;-51
2023/10/20 06:08:31;;;;;;;8.38;5.25;;;;;;;;;;5012189;28;20204;-50
2023/10/20 06:11:02;;;;;;;9.48;4.40;;;;;;;;;;5011631;28;20303;-50
2023/10/20 06:13:35;;;;;;;10.20;5.35;;;;;;;;;;5011707;28;20208;-50
2023/10/20 06:16:08;;;;;;;10.02;5.15;;;;;;;;;;4994181;28;20205;-53
2023/10/20 06:18:41;;;;;;;12.48;4.93;;;;;;;;;;5011780;28;20216;-46
2023/10/20 06:21:16;;;;;;;9.07;5.18;;;;;;;;;;5012124;28;20623;-45
2023/10/20 06:23:45;;;;;;;11.27;5.35;;;;;;;;;;5011673;28;20213;-55
2023/10/20 06:26:13;;;;;;;9.95;4.97;;;;;;;;;;5011645;28;20216;-48
2023/10/20 06:28:40;;;;;;;10.95;5.78;;;;;;;;;;5011571;28;20749;-49
2023/10/20 06:31:27;;;;;;;10.98;5.50;;;;;;;;;;5011607;28;20209;-50
2023/10/20 06:34:16;;;;;;;10.63;5.47;;;;;;;;;;5011923;28;20207;-51
2023/10/20 06:36:48;;;;;;;11.13;5.13;;;;;;;;;;5011502;28;20205;-51
2023/10/20 06:39:18;;;;;;;8.93;4.65;;;;;;;;;;5011399;28;20217;-48
2023/10/20 06:41:46;;;;;;;9.23;4.95;;;;;;;;;;5011526;28;20217;-47
2023/10/20 06:44:19;;;;;;;10.90;4.75;;;;;;;;;;5011531;28;20201;-45
2023/10/20 06:46:46;;;;;;;8.90;4.70;;;;;;;;;;5015266;28;20255;-51
2023/10/20 06:49:18;;;;;;;7.15;4.20;;;;;;;;;;5015052;28;20201;-49
2023/10/20 06:51:46;;;;;;;8.38;4.30;;;;;;;;;;5015429;28;20622;-47
2023/10/20 06:54:13;;;;;;;9.10;4.60;;;;;;;;;;5015275;28;20209;-46
2023/10/20 06:56:40;;;;;;;9.45;4.70;;;;;;;;;;5015145;28;20206;-49
2023/10/20 06:59:12;;;;;;;11.63;4.07;;;;;;;;;;5014939;28;20279;-51
2023/10/20 07:01:40;;;;;;;7.13;4.03;;;;;;;;;;5015434;28;20208;-51
2023/10/20 07:04:11;;;;;;;7.57;4.25;;;;;;;;;;5015131;28;20202;-50
2023/10/20 07:06:40;;;;;;;9.77;4.45;;;;;;;;;;5015134;28;20207;-53
2023/10/20 07:09:13;;;;;;;11.60;4.18;;;;;;;;;;5014778;28;20210;-53
2023/10/20 07:11:42;;;;;;;7.10;3.95;;;;;;;;;;5014676;28;20201;-52
2023/10/20 07:14:10;;;;;;;5.95;3.50;;;;;;;;;;5014584;28;20205;-49
2023/10/20 07:16:38;;;;;;;8.23;4.30;;;;;;;;;;5014942;28;20205;-50
2023/10/20 07:19:06;;;;;;;7.15;3.80;;;;;;;;;;5014765;28;20236;-54
2023/10/20 07:21:34;;;;;;;6.53;4.13;;;;;;;;;;5014745;28;20353;-51
2023/10/20 07:24:04;;;;;;;8.80;4.20;;;;;;;;;;5014506;28;20205;-47
2023/10/20 07:26:31;;;;;;;6.55;3.47;;;;;;;;;;5014377;28;20232;-50
2023/10/20 07:28:58;;;;;;;8.35;4.55;;;;;;;;;;5014835;28;20561;-58
2023/10/20 07:31:26;;;;;;;12.40;4.10;;;;;;;;;;5014396;28;20211;-50
2023/10/20 07:33:53;;;;;;;8.90;4.10;;;;;;;;;;5014623;28;20239;-51
2023/10/20 07:36:21;;;;;;;14.80;4.88;;;;;;;;;;5014623;28;20208;-52
2023/10/20 07:38:48;;;;;;;8.68;3.90;;;;;;;;;;5014243;28;20225;-48
2023/10/20 07:41:15;;;;;;;7.32;4.10;;;;;;;;;;5014031;28;20623;-50
2023/10/20 07:43:42;;;;;;;8.35;4.45;;;;;;;;;;5014230;28;20213;-53
2023/10/20 07:46:16;;;;;;;8.38;4.03;;;;;;;;;;5014212;28;20197;-48
2023/10/20 07:48:45;;;;;;;8.75;4.50;;;;;;;;;;5014196;28;20662;-49
2023/10/20 07:51:12;;;;;;;8.02;4.13;;;;;;;;;;5014010;28;20204;-46
2023/10/20 07:53:39;;;;;;;7.78;4.15;;;;;;;;;;5013922;28;20212;-49
2023/10/20 07:56:06;;;;;;;7.38;4.47;;;;;;;;;;5013628;28;20220;-51
2023/10/20 07:58:34;;;;;;;12.32;5.22;;;;;;;;;;5013734;28;20674;-52
2023/10/20 08:01:01;;;;;;;8.07;4.60;;;;;;;;;;5013841;28;20232;-48
2023/10/20 08:03:28;;;;;;;8.00;4.95;;;;;;;;;;5014218;28;20205;-49
2023/10/20 08:05:56;;;;;;;11.90;5.03;;;;;;;;;;5013777;28;20603;-49
2023/10/20 08:08:23;;;;;;;12.73;4.80;;;;;;;;;;5013677;28;20209;-48
2023/10/20 08:10:51;;;;;;;9.98;5.38;;;;;;;;;;5013771;28;20251;-51
2023/10/20 08:13:19;;;;;;;7.38;4.13;;;;;;;;;;5013668;28;20330;-47
2023/10/20 08:15:46;;;;;;;9.27;4.28;;;;;;;;;;5013634;28;20651;-49
2023/10/20 08:18:13;;;;;;;8.43;4.35;;;;;;;;;;5013958;28;20209;-50
2023/10/20 08:20:41;;;;;;;7.25;4.63;;;;;;;;;;5013399;28;20217;-50
2023/10/20 08:23:08;;;;;;;9.98;4.95;;;;;;;;;;5013419;28;20206;-51
2023/10/20 08:25:38;;;;;;;6.57;4.82;;;;;;;;;;5013599;28;20205;-48
2023/10/20 08:28:07;;;;;;;10.52;4.35;;;;;;;;;;5013398;28;20233;-51
2023/10/20 08:30:34;;;;;;;11.50;5.32;;;;;;;;;;5013316;28;20213;-49
2023/10/20 08:33:03;;;;;;;7.50;4.40;;;;;;;;;;5013318;28;20208;-49
2023/10/20 08:35:31;;;;;;;9.13;4.43;;;;;;;;;;5013374;28;20284;-49
2023/10/20 08:37:58;;;;;;;9.98;4.57;;;;;;;;;;5013480;28;20253;-49
2023/10/20 08:40:32;;;;;;;12.02;4.88;;;;;;;;;;5013015;28;20312;-51
2023/10/20 08:43:04;;;;;;;8.55;4.45;;;;;;;;;;5013079;28;20201;-49
2023/10/20 08:45:32;;;;;;;7.20;4.35;;;;;;;;;;4995993;28;20189;-50
2023/10/20 08:48:03;;;;;;;11.02;4.30;;;;;;;;;;5012901;28;20217;-49
2023/10/20 08:50:31;;;;;;;9.93;4.63;;;;;;;;;;4995875;28;20209;-53
2023/10/20 08:53:01;;;;;;;10.55;4.97;;;;;;;;;;4995719;28;20678;-47
2023/10/20 08:55:28;;;;;;;13.70;4.65;;;;;;;;;;4995637;28;20205;-49
2023/10/20 08:57:56;;;;;;;9.70;4.95;;;;;;;;;;5012705;28;20209;-46
2023/10/20 09:00:23;;;;;;;8.20;4.53;;;;;;;;;;5012487;28;20232;-52
2023/10/20 09:02:57;;;;;;;14.02;4.97;;;;;;;;;;5012910;28;20224;-46
2023/10/20 09:05:26;;;;;;;8.60;4.57;;;;;;;;;;5012847;28;20278;-49
2023/10/20 09:07:56;;;;;;;12.52;4.80;;;;;;;;;;5011753;28;20210;-52
2023/10/20 09:10:24;;;;;;;12.98;5.10;;;;;;;;;;5012966;28;20201;-46
2023/10/20 09:12:51;;;;;;;8.65;4.60;;;;;;;;;;5012482;28;20214;-49
2023/10/20 09:15:21;;;;;;;9.60;5.10;;;;;;;;;;5012643;28;20208;-50
2023/10/20 09:17:54;;;;;;;9.85;4.40;;;;;;;;;;5012795;28;20317;-49
2023/10/20 09:20:23;;;;;;;7.72;4.55;;;;;;;;;;5012752;28;20445;-51
2023/10/20 09:22:51;;;;;;;9.43;4.63;;;;;;;;;;5012513;28;20209;-49
2023/10/20 09:25:18;;;;;;;16.70;4.72;;;;;;;;;;5012263;28;20216;-49
2023/10/20 09:27:46;;;;;;;10.02;4.80;;;;;;;;;;5012213;28;20592;-51
2023/10/20 09:30:14;;;;;;;9.02;4.80;;;;;;;;;;5012453;28;20205;-50
2023/10/20 09:32:41;;;;;;;8.73;4.60;;;;;;;;;;5012179;28;20209;-48
2023/10/20 09:35:09;;;;;;;11.27;5.40;;;;;;;;;;5012238;28;20201;-52
2023/10/20 09:37:37;;;;;;;8.65;4.25;;;;;;;;;;5012152;28;20205;-46
2023/10/20 09:40:06;;;;;;;15.35;5.30;;;;;;;;;;4994488;28;20276;-50
2023/10/20 09:42:43;;;;;;;18.15;5.88;;;;;;;;;;5012204;28;20213;-49
2023/10/20 09:45:14;;;;;;;8.27;4.93;;;;;;;;;;5012205;28;20666;-52
2023/10/20 09:47:43;;;;;;;11.98;5.00;;;;;;;;;;5012096;28;20291;-48
2023/10/20 09:50:14;;;;;;;11.85;5.30;;;;;;;;;;5011892;28;20205;-47
2023/10/20 09:52:42;;;;;;;11.75;5.05;;;;;;;;;;5011952;28;20201;-48
2023/10/20 09:55:11;;;;;;;9.95;4.35;;;;;;;;;;5011863;28;20201;-52
2023/10/20 09:57:39;;;;;;;10.07;5.00;;;;;;;;;;4994800;28;20210;-47
2023/10/20 10:00:09;;;;;;;13.30;5.75;;;;;;;;;;4994455;28;20221;-45
2023/10/20 10:02:36;;;;;;;11.40;5.25;;;;;;;;;;5011778;28;20717;-53
2023/10/20 10:05:08;;;;;;;13.77;5.82;;;;;;;;;;4994381;28;20655;-47
2023/10/20 10:07:36;;;;;;;13.02;5.88;;;;;;;;;;5011969;28;20654;-46
2023/10/20 10:10:03;;;;;;;9.57;5.13;;;;;;;;;;5011846;28;20229;-45
2023/10/20 10:12:34;;;;;;;12.40;5.82;;;;;;;;;;5011774;28;20663;-48
2023/10/20 10:15:13;;;;;;;9.90;5.40;;;;;;;;;;5011642;28;20197;-46
2023/10/20 10:17:45;;;;;;;10.02;5.32;;;;;;;;;;5011764;28;20212;-49
2023/10/20 10:20:22;;;;;;;13.80;5.60;;;;;;;;;;5015316;28;20236;-51
2023/10/20 10:22:59;;;;;;;11.10;5.32;;;;;;;;;;5015816;28;20205;-50
2023/10/20 10:25:54;;;;;;;10.07;5.75;;;;;;;;;;5015771;28;20271;-50
2023/10/20 10:28:21;;;;;;;14.38;5.63;;;;;;;;;;5015763;28;20598;-49
2023/10/20 10:30:51;;;;;;;13.77;5.95;;;;;;;;;;5015372;28;20709;-49
2023/10/20 10:33:23;;;;;;;13.80;6.15;;;;;;;;;;5015629;28;20201;-51
2023/10/20 10:36:03;;;;;;;12.52;6.38;;;;;;;;;;5015756;28;20618;-51
2023/10/20 10:38:41;;;;;;;13.30;5.70;;;;;;;;;;5015444;28;20201;-52
2023/10/20 10:41:08;;;;;;;16.67;6.07;;;;;;;;;;5015436;28;20701;-53
2023/10/20 10:43:36;;;;;;;12.52;6.15;;;;;;;;;;5015431;28;20209;-46
2023/10/20 10:46:05;;;;;;;15.20;6.05;;;;;;;;;;5015184;28;20212;-52
2023/10/20 10:48:34;;;;;;;13.77;6.03;;;;;;;;;;5015245;28;20573;-49
2023/10/20 10:51:05;;;;;;;15.43;6.07;;;;;;;;;;5015011;28;20213;-53
2023/10/20 10:53:32;;;;;;;11.07;5.57;;;;;;;;;;5015491;28;20210;-48
2023/10/20 10:56:00;;;;;;;12.00;6.18;;;;;;;;;;5015017;28;20229;-50
2023/10/20 10:58:27;;;;;;;14.95;5.50;;;;;;;;;;5015198;28;20205;-52
2023/10/20 11:00:54;;;;;;;12.52;6.50;;;;;;;;;;5014751;28;20264;-48
2023/10/20 11:03:22;;;;;;;16.90;6.78;;;;;;;;;;4997692;28;20201;-49
2023/10/20 11:05:52;;;;;;;16.75;6.28;;;;;;;;;;4998094;28;20206;-51
2023/10/20 11:08:20;;;;;;;15.93;6.68;;;;;;;;;;5015040;28;20209;-48
2023/10/20 11:10:48;;;;;;;11.45;5.85;;;;;;;;;;5014748;28;20610;-52
2023/10/20 11:13:17;;;;;;;11.68;5.90;;;;;;;;;;5014777;28;20690;-46
2023/10/20 11:15:49;;;;;;;11.77;6.63;;;;;;;;;;5014646;28;20201;-54
2023/10/20 11:18:18;;;;;;;11.52;6.35;;;;;;;;;;4997457;28;20209;-50
2023/10/20 11:20:47;;;;;;;12.82;6.78;;;;;;;;;;5014846;28;20225;-48
2023/10/20 11:23:19;;;;;;;12.00;6.00;;;;;;;;;;5014695;28;20201;-50
2023/10/20 11:25:48;;;;;;;14.57;6.47;;;;;;;;;;5014441;28;20201;-47
2023/10/20 11:28:16;;;;;;;12.43;6.35;;;;;;;;;;5014765;28;20241;-50
2023/10/20 11:30:45;;;;;;;16.95;7.28;;;;;;;;;;5013761;28;20209;-49
2023/10/20 11:33:13;;;;;;;18.67;7.03;;;;;;;;;;4997389;28;20684;-48
2023/10/20 11:35:43;;;;;;;11.57;6.60;;;;;;;;;;5014428;28;20205;-50
2023/10/20 11:38:17;;;;;;;13.63;6.90;;;;;;;;;;5014279;28;20202;-51
2023/10/20 11:40:47;;;;;;;14.73;6.57;;;;;;;;;;5014181;28;20221;-48
2023/10/20 11:43:17;;;;;;;20.25;6.57;;;;;;;;;;5022405;28;20444;-49
2023/10/20 11:45:44;;;;;;;16.85;7.40;;;;;;;;;;5022621;28;20201;-47
2023/10/20 11:48:12;;;;;;;11.90;6.15;;;;;;;;;;5026305;28;20192;-47
2023/10/20 11:50:39;;;;;;;16.45;7.50;;;;;;;;;;5019343;28;20202;-48
2023/10/20 11:53:07;;;;;;;12.07;6.35;;;;;;;;;;5024430;28;20193;-47
2023/10/20 11:55:34;;;;;;;13.25;6.78;;;;;;;;;;5019900;28;20196;-46
2023/10/20 11:58:04;;;;;;;14.65;6.50;;;;;;;;;;5021755;28;20201;-49
2023/10/20 12:00:31;;;;;;;13.00;6.63;;;;;;;;;;5024533;28;20225;-48
2023/10/20 12:02:58;;;;;;;13.02;7.40;;;;;;;;;;5013619;28;20194;-49
2023/10/20 12:05:25;;;;;;;13.82;7.72;;;;;;;;;;5022196;28;20221;-46
2023/10/20 12:07:53;;;;;;;11.68;6.32;;;;;;;;;;5016015;28;20199;-51
2023/10/20 12:10:23;;;;;;;14.70;7.20;;;;;;;;;;5022110;28;20201;-53
2023/10/20 12:12:51;;;;;;;12.32;6.47;;;;;;;;;;5024231;28;20602;-48
2023/10/20 12:15:18;;;;;;;17.90;7.32;;;;;;;;;;5014237;28;20307;-46
2023/10/20 12:17:46;;;;;;;16.58;7.18;;;;;;;;;;5013074;28;20201;-50
2023/10/20 12:20:13;;;;;;;12.57;6.80;;;;;;;;;;5018505;28;20562;-48
2023/10/20 12:22:40;;;;;;;13.35;6.90;;;;;;;;;;5025728;28;20212;-46
2023/10/20 12:25:08;;;;;;;12.95;7.05;;;;;;;;;;5019493;28;20576;-49
2023/10/20 12:27:35;;;;;;;19.05;7.90;;;;;;;;;;5021729;28;20228;-49
2023/10/20 12:30:03;;;;;;;18.42;7.45;;;;;;;;;;5023610;28;20204;-50
2023/10/20 12:32:31;;;;;;;15.40;7.85;;;;;;;;;;5021675;28;20267;-46
2023/10/20 12:34:59;;;;;;;14.00;7.15;;;;;;;;;;5011860;28;20601;-49
2023/10/20 12:37:26;;;;;;;17.15;7.50;;;;;;;;;;5020741;28;20224;-51
2023/10/20 12:39:54;;;;;;;18.13;8.68;;;;;;;;;;5014168;28;20248;-46
2023/10/20 12:42:21;;;;;;;15.45;6.80;;;;;;;;;;5025126;28;20693;-52
2023/10/20 12:44:48;;;;;;;14.27;7.50;;;;;;;;;;5001506;28;20364;-51
2023/10/20 12:47:16;;;;;;;14.65;6.95;;;;;;;;;;5014779;28;20244;-48
2023/10/20 12:49:44;;;;;;;15.70;8.02;;;;;;;;;;5012276;28;20221;-44
2023/10/20 12:52:12;;;;;;;18.33;7.47;;;;;;;;;;5012106;28;20236;-48
2023/10/20 12:54:40;;;;;;;11.93;6.72;;;;;;;;;;5011586;28;20722;-45
2023/10/20 12:57:08;;;;;;;12.63;5.80;;;;;;;;;;5012018;28;20225;-46
2023/10/20 12:59:35;;;;;;;15.43;7.85;;;;;;;;;;5012109;28;20253;-45
2023/10/20 13:02:04;;;;;;;15.32;8.18;;;;;;;;;;5011967;28;20251;-46
2023/10/20 13:04:31;;;;;;;15.10;7.40;;;;;;;;;;5012584;28;20714;-47
2023/10/20 13:06:58;;;;;;;11.05;6.85;;;;;;;;;;5011902;28;20225;-44
2023/10/20 13:09:27;;;;;;;11.40;6.50;;;;;;;;;;5012500;28;20217;-45
2023/10/20 13:11:58;;;;;;;17.77;8.75;;;;;;;;;;5031384;28;20220;-47
2023/10/20 13:14:26;;;;;;;15.82;6.97;;;;;;;;;;5031738;28;20228;-48
2023/10/20 13:16:53;;;;;;;17.98;7.13;;;;;;;;;;5031298;28;20232;-48
2023/10/20 13:19:21;;;;;;;12.32;6.97;;;;;;;;;;5032127;28;20227;-50
2023/10/20 13:21:48;;;;;;;18.55;8.23;;;;;;;;;;5031107;28;20235;-52
2023/10/20 13:24:16;;;;;;;16.48;7.43;;;;;;;;;;5031026;28;20224;-46
2023/10/20 13:26:43;;;;;;;14.38;7.60;;;;;;;;;;5031234;28;20335;-47
2023/10/20 13:29:11;;;;;;;15.52;7.97;;;;;;;;;;5031182;28;20256;-47
2023/10/20 13:31:38;;;;;;;18.35;7.13;;;;;;;;;;5031095;28;20705;-47
2023/10/20 13:34:05;;;;;;;16.45;7.70;;;;;;;;;;5031396;28;20248;-45
2023/10/20 13:36:34;;;;;;;17.05;7.55;;;;;;;;;;5031297;28;20221;-44
2023/10/20 13:39:02;;;;;;;18.77;7.25;;;;;;;;;;5025975;28;20244;-44
2023/10/20 13:41:43;;;;;;;19.27;7.88;;;;;;;;;;5009402;28;20299;-45
2023/10/20 13:44:14;;;;;;;17.67;8.02;;;;;;;;;;5011521;28;20222;-50
2023/10/20 13:46:41;;;;;;;14.35;7.38;;;;;;;;;;5011138;28;20237;-47
2023/10/20 13:49:08;;;;;;;12.45;7.32;;;;;;;;;;5011246;28;20632;-46
2023/10/20 13:51:36;;;;;;;14.02;7.45;;;;;;;;;;5011049;28;20594;-46
2023/10/20 13:54:03;;;;;;;13.80;7.13;;;;;;;;;;5010746;28;20743;-47
2023/10/20 13:56:31;;;;;;;17.48;8.05;;;;;;;;;;5010976;28;20221;-50
2023/10/20 13:58:59;;;;;;;16.45;8.18;;;;;;;;;;5011484;28;20221;-50
2023/10/20 14:01:26;;;;;;;15.80;7.80;;;;;;;;;;5011267;28;20241;-50
2023/10/20 14:03:53;;;;;;;18.90;7.45;;;;;;;;;;5011141;28;20230;-51
2023/10/20 14:06:23;;;;;;;14.38;7.78;;;;;;;;;;5011255;28;20225;-47
2023/10/20 14:08:50;;;;;;;18.75;8.02;;;;;;;;;;5010812;28;20352;-52
2023/10/20 14:11:18;;;;;;;14.98;7.45;;;;;;;;;;5011786;28;20233;-49
2023/10/20 14:13:45;;;;;;;20.15;8.00;;;;;;;;;;5011039;28;20225;-48
2023/10/20 14:16:12;;;;;;;20.35;7.85;;;;;;;;;;5011074;28;20229;-51
2023/10/20 14:18:40;;;;;;;21.73;8.60;;;;;;;;;;5010366;28;20248;-48
2023/10/20 14:21:08;;;;;;;14.50;7.93;;;;;;;;;;5009544;28;20239;-47
2023/10/20 14:23:35;;;;;;;18.30;7.97;;;;;;;;;;5010669;28;20253;-47
2023/10/20 14:26:03;;;;;;;16.75;7.43;;;;;;;;;;5010846;28;20283;-49
2023/10/20 14:28:33;;;;;;;13.10;7.53;;;;;;;;;;5010728;28;20287;-50
2023/10/20 14:31:01;;;;;;;15.68;8.13;;;;;;;;;;5016595;28;20228;-47
2023/10/20 14:33:29;;;;;;;17.67;7.68;;;;;;;;;;5023636;28;20221;-45
2023/10/20 14:35:56;;;;;;;15.27;7.63;;;;;;;;;;5011006;28;20236;-50
2023/10/20 14:38:24;;;;;;;22.88;7.97;;;;;;;;;;5010795;28;20236;-51
2023/10/20 14:41:03;;;;;;;14.48;7.30;;;;;;;;;;5009869;28;20364;-51
2023/10/20 14:43:32;;;;;;;13.75;7.30;;;;;;;;;;5009043;28;20316;-48
2023/10/20 14:46:00;;;;;;;14.65;6.30;;;;;;;;;;5008764;28;20232;-48
2023/10/20 14:48:27;;;;;;;14.93;7.05;;;;;;;;;;5006762;28;20221;-45
2023/10/20 14:50:56;;;;;;;13.48;7.18;;;;;;;;;;5010094;28;20722;-53
2023/10/20 14:53:24;;;;;;;13.27;6.88;;;;;;;;;;5010231;28;20318;-45
2023/10/20 14:55:51;;;;;;;12.73;6.57;;;;;;;;;;5027022;28;20784;-49
2023/10/20 14:58:18;;;;;;;14.73;7.00;;;;;;;;;;5030319;28;20308;-46
2023/10/20 15:00:47;;;;;;;13.63;6.80;;;;;;;;;;5030344;28;20222;-47
2023/10/20 15:03:15;;;;;;;16.30;6.70;;;;;;;;;;5030312;28;20850;-51
2023/10/20 15:05:44;;;;;;;16.80;6.32;;;;;;;;;;5013879;28;20307;-50
2023/10/20 15:08:11;;;;;;;13.07;6.45;;;;;;;;;;5033595;28;20853;-47
2023/10/20 15:10:38;;;;;;;13.88;6.72;;;;;;;;;;5033805;28;20613;-49